Terminal Aerodrome Forecast
Issued by NWS Wichita, KS

Home | Current Version | Previous Version | Text Only | Print | Product List | Glossary On
Versions: 1 2 3 4 5 6 7 8 9 10 11 12 13 14 15 16 17 18
000
FTUS43 KICT 271120
TAFICT
TAF
KICT 271120Z 2712/2812 04014KT P6SM SCT040 OVC100
     FM271400 04015G24KT P6SM VCSH SCT035 OVC070
     FM271900 05016G24KT P6SM FEW040 OVC090
     FM280300 01007KT P6SM BKN150=

USA.gov is the U.S. government's official web portal to all federal, state and local government web resources and services.